METAR Data
IDs: Format: Raw Decoded Include TAF

Data at: 0443 UTC 26 Sep 2018

KCLW 260435Z AUTO 15004KT 10SM BKN017 27/24 A3010 RMK AO2
KCLW 260415Z AUTO 11006KT 10SM BKN019 BKN055 27/24 A3010 RMK AO2
KCLW 260355Z AUTO 12007KT 10SM BKN019 OVC055 27/24 A3012 RMK AO2
KCLW 260335Z AUTO 11003KT 10SM SCT019 SCT055 27/24 A3012 RMK AO2
KCLW 260315Z AUTO 12006KT 10SM SCT020 SCT027 27/24 A3012 RMK AO2
KCLW 260255Z AUTO 12006KT 10SM SCT022 28/23 A3011 RMK AO2
KCLW 260235Z AUTO 12005KT 10SM SCT022 28/24 A3010 RMK AO2
KCLW 260215Z AUTO 11003KT 10SM SCT022 27/25 A3008 RMK AO2
KCLW 260155Z AUTO 11004KT 10SM CLR 27/25 A3007 RMK AO2
KCLW 260135Z AUTO 00000KT 10SM SCT070 27/25 A3007 RMK AO2
KCLW 260115Z AUTO 00000KT 10SM OVC065 27/25 A3007 RMK AO2
KCLW 260055Z AUTO 00000KT 10SM OVC065 27/25 A3007 RMK AO2
KCLW 260035Z AUTO 00000KT 10SM BKN055 OVC065 27/25 A3006 RMK AO2
KCLW 260015Z AUTO 00000KT 10SM BKN055 26/25 A3005 RMK AO2
KCLW 252355Z AUTO 00000KT 10SM -DZ CLR 26/26 A3004 RMK AO2
KCLW 252335Z AUTO 00000KT 10SM CLR 26/25 A3002 RMK AO2
KCLW 252315Z AUTO 00000KT 10SM CLR 26/24 A3003 RMK AO2
KCLW 252255Z AUTO 26003KT 10SM SCT049 SCT065 SCT080 25/23 A3003 RMK AO2 P0006
KCLW 252235Z AUTO 00000KT 10SM -RA BKN041 BKN050 OVC065 26/25 A3003 RMK AO2 P0006
KCLW 252215Z AUTO 00000KT 10SM -RA SCT031 OVC039 26/25 A3003 RMK AO2 P0005
KCLW 252155Z AUTO 10004G16KT 7SM RA SCT030 BKN042 OVC065 28/24 A3002 RMK AO2
KCLW 252135Z AUTO 32007G14KT 10SM SCT055 BKN065 30/23 A3001 RMK AO2
KCLW 252115Z AUTO 33008KT 10SM SCT047 BKN050 BKN065 30/23 A3001 RMK AO2
KCLW 252055Z AUTO 32009KT 10SM BKN055 BKN065 30/23 A3001 RMK AO2
KCLW 252035Z AUTO 35007KT 10SM SCT060 31/23 A3002 RMK AO2
KCLW 252015Z AUTO 32008KT 10SM SCT050 31/23 A3002 RMK AO2
KCLW 251955Z AUTO 32004KT 10SM SCT035 SCT045 BKN060 31/23 A3003 RMK AO2
KCLW 251935Z AUTO 35006KT 10SM SCT035 SCT045 31/23 A3003 RMK AO2
KCLW 251915Z AUTO 04005KT 10SM CLR 32/21 A3004 RMK AO2
KCLW 251855Z AUTO 13007KT 030V180 10SM CLR 32/22 A3005 RMK AO2
KCLW 251835Z AUTO 00000KT 10SM CLR 31/22 A3006 RMK AO2
KCLW 251815Z AUTO 14006KT 10SM CLR 31/22 A3007 RMK AO2
KCLW 251755Z AUTO 13007KT 10SM CLR 31/22 A3008 RMK AO2
KCLW 251735Z AUTO 09006KT 10SM CLR 31/22 A3008 RMK AO2
KCLW 251715Z AUTO 09004KT 10SM CLR 31/22 A3009 RMK AO2
KCLW 251655Z AUTO 09006KT 10SM CLR 31/23 A3009 RMK AO2
KCLW 251635Z AUTO 11006KT 10SM SCT025 30/23 A3009 RMK AO2
KCLW 251615Z AUTO 09007KT 050V120 10SM CLR 30/23 A3010 RMK AO2
KCLW 251555Z AUTO 11008KT 10SM CLR 30/23 A3010 RMK AO2
KCLW 251535Z AUTO 11007KT 10SM CLR 29/23 A3010 RMK AO2
KCLW 251515Z AUTO 11008KT 080V140 10SM CLR 29/23 A3010 RMK AO2
KCLW 251455Z AUTO 13008KT 10SM CLR 28/23 A3010 RMK AO2
KCLW 251435Z AUTO 10006KT 10SM CLR 28/23 A3009 RMK AO2
KCLW 251415Z AUTO 11007KT 10SM SCT016 28/23 A3009 RMK AO2
KCLW 251355Z AUTO 13008KT 10SM SCT016 28/23 A3010 RMK AO2
KCLW 251335Z AUTO 11007KT 10SM SCT014 27/23 A3009 RMK AO2
KCLW 251315Z AUTO 11007KT 10SM SCT012 27/24 A3009 RMK AO2
KCLW 251255Z AUTO 11003KT 10SM SCT012 27/24 A3009 RMK AO2
KCLW 251235Z AUTO 09004KT 10SM CLR 26/25 A3008 RMK AO2
KCLW 251215Z AUTO 09003KT 10SM CLR 25/24 A3008 RMK AO2
KCLW 251155Z AUTO 07003KT 10SM CLR 25/24 A3007 RMK AO2
KCLW 251135Z AUTO 07003KT 10SM CLR 25/24 A3007 RMK AO2
KCLW 251115Z AUTO 09003KT 10SM CLR 25/24 A3006 RMK AO2
KCLW 251055Z AUTO 09004KT 10SM CLR 25/24 A3006 RMK AO2
KCLW 251035Z AUTO 10003KT 10SM CLR 25/24 A3005 RMK AO2
KCLW 251015Z AUTO 09003KT 10SM CLR 24/24 A3005 RMK AO2
KCLW 250955Z AUTO 00000KT 10SM CLR 25/24 A3005 RMK AO2
KCLW 250935Z AUTO 08004KT 10SM CLR 25/24 A3004 RMK AO2
KCLW 250915Z AUTO 05003KT 10SM SCT013 25/24 A3004 RMK AO2
KCLW 250855Z AUTO 00000KT 10SM SCT013 25/24 A3004 RMK AO2
KCLW 250835Z AUTO 10003KT 10SM SCT013 25/24 A3003 RMK AO2
KCLW 250815Z AUTO 11007KT 10SM SCT013 26/24 A3003 RMK AO2
KCLW 250735Z AUTO 11004KT 10SM CLR 25/24 A3003 RMK AO2
KCLW 250715Z AUTO 12004KT 10SM CLR 26/24 A3003 RMK AO2
KCLW 250655Z AUTO 12004KT 10SM CLR 26/23 A3004 RMK AO2
KCLW 250635Z AUTO 11004KT 10SM CLR 25/24 A3004 RMK AO2
KCLW 250615Z AUTO 11004KT 10SM CLR 25/23 A3005 RMK AO2
KCLW 250555Z AUTO 11005KT 10SM CLR 25/24 A3005 RMK AO2
KCLW 250515Z AUTO 10003KT 10SM CLR 25/24 A3006 RMK AO2
KCLW 250455Z AUTO 10004KT 10SM CLR 25/24 A3006 RMK AO2
KCLW 250435Z AUTO 10003KT 10SM SCT090 25/24 A3006 RMK AO2
KCLW 250415Z AUTO 06004KT 10SM BKN090 25/24 A3006 RMK AO2
KCLW 250355Z AUTO 05004KT 10SM SCT090 25/24 A3006 RMK AO2
KCLW 250335Z AUTO 07003KT 10SM BKN090 25/24 A3007 RMK AO2
KCLW 250315Z AUTO 00000KT 10SM SCT080 OVC090 25/23 A3008 RMK AO2
KCLW 250255Z AUTO 07003KT 10SM SCT039 BKN070 OVC085 25/23 A3007 RMK AO2 P0001
KCLW 250235Z AUTO 00000KT 10SM OVC060 25/23 A3006 RMK AO2 P0001
KCLW 250215Z AUTO 00000KT 10SM -RA BKN060 OVC090 25/23 A3005 RMK AO2 P0001
KCLW 250155Z AUTO 07003KT 10SM -RA SCT060 SCT080 BKN090 25/23 A3004 RMK AO2 P0005
KCLW 250135Z AUTO 04003KT 10SM -RA SCT070 BKN100 25/23 A3004 RMK AO2 P0004
KCLW 250115Z AUTO 00000KT 10SM -RA OVC100 24/23 A3003 RMK AO2 P0002
KCLW 250055Z AUTO 00000KT 10SM -RA BKN110 24/23 A3003 RMK AO2 P0001
KCLW 250035Z AUTO 00000KT 10SM SCT085 23/23 A3002 RMK AO2
KCLW 250015Z AUTO 00000KT 10SM -RA SCT044 SCT070 BKN085 23/23 A3003 RMK AO2
KCLW 242355Z AUTO 26004KT 2SM -RA SCT035 BKN050 OVC075 23/23 A3003 RMK AO2 VIS 1/4V5 P0018
KCLW 242335Z AUTO 00000KT 2 1/2SM +RA SCT033 BKN038 OVC050 23/22 A3004 RMK AO2 VIS 1 1/2V5 P0008
KCLW 242315Z AUTO 10005G09KT 7SM SCT031 BKN038 OVC055 25/21 A3003 RMK AO2
KCLW 242255Z AUTO 02005KT 10SM SCT055 SCT065 29/22 A3000 RMK AO2
KCLW 242235Z AUTO 31006KT 10SM CLR 30/22 A2998 RMK AO2
KCLW 242215Z AUTO 30006KT 10SM CLR 30/22 A2998 RMK AO2
KCLW 242155Z AUTO 33009KT 10SM CLR 30/22 A2998 RMK AO2
KCLW 242135Z AUTO 31008KT 10SM CLR 30/22 A2998 RMK AO2
KCLW 242115Z AUTO 32007KT 10SM CLR 30/22 A2998 RMK AO2
KCLW 242055Z AUTO 30007KT 10SM CLR 30/22 A2998 RMK AO2
KCLW 242035Z AUTO 30008KT 10SM CLR 31/22 A2998 RMK AO2 PWINO
KCLW 242015Z AUTO 00000KT 10SM CLR 32/20 A2997 RMK AO2
KCLW 241955Z AUTO 00000KT 10SM CLR 32/20 A2998 RMK AO2
KCLW 241935Z AUTO 00000KT 10SM CLR 32/20 A2998 RMK AO2
KCLW 241915Z AUTO 16004KT 10SM CLR 31/20 A3000 RMK AO2
KCLW 241855Z AUTO 18006KT 10SM CLR 31/20 A3001 RMK AO2
KCLW 241835Z AUTO 11006KT 10SM CLR 31/20 A3002 RMK AO2
KCLW 241815Z AUTO 13006KT 10SM CLR 31/20 A3003 RMK AO2
KCLW 241755Z AUTO 14006KT 10SM CLR 31/21 A3004 RMK AO2
KCLW 241735Z AUTO 14006KT 10SM CLR 30/21 A3004 RMK AO2
KCLW 241715Z AUTO 13009KT 10SM CLR 31/20 A3004 RMK AO2
KCLW 241655Z AUTO 12008KT 10SM CLR 30/20 A3004 RMK AO2